KHUL 280753Z AUTO 18006KT 10SM FEW070 07/00 A3014 RMK AO2 SLP208 T00670000